sensor_id;sensor_type;location;lat;lon;timestamp;temperature;humidity
21734;DHT22;11029;47.820;10.534;2023-07-31T00:01:43;14.00;71.90
21734;DHT22;11029;47.820;10.534;2023-07-31T00:04:10;14.10;71.70
21734;DHT22;11029;47.820;10.534;2023-07-31T00:06:37;14.00;71.80
21734;DHT22;11029;47.820;10.534;2023-07-31T00:09:04;13.90;73.00
21734;DHT22;11029;47.820;10.534;2023-07-31T00:11:31;14.00;71.90
21734;DHT22;11029;47.820;10.534;2023-07-31T00:13:58;14.00;71.00
21734;DHT22;11029;47.820;10.534;2023-07-31T00:16:25;13.90;71.30
21734;DHT22;11029;47.820;10.534;2023-07-31T00:18:52;13.80;71.50
21734;DHT22;11029;47.820;10.534;2023-07-31T00:21:19;13.70;71.90
21734;DHT22;11029;47.820;10.534;2023-07-31T00:23:45;13.70;72.10
21734;DHT22;11029;47.820;10.534;2023-07-31T00:26:12;13.70;71.10
21734;DHT22;11029;47.820;10.534;2023-07-31T00:28:39;13.50;72.60
21734;DHT22;11029;47.820;10.534;2023-07-31T00:31:06;13.50;72.80
21734;DHT22;11029;47.820;10.534;2023-07-31T00:33:35;13.60;72.40
21734;DHT22;11029;47.820;10.534;2023-07-31T00:36:03;13.70;72.20
21734;DHT22;11029;47.820;10.534;2023-07-31T00:38:30;13.90;71.20
21734;DHT22;11029;47.820;10.534;2023-07-31T00:40:56;13.80;71.60
21734;DHT22;11029;47.820;10.534;2023-07-31T00:43:24;13.80;71.50
21734;DHT22;11029;47.820;10.534;2023-07-31T00:45:51;13.80;70.90
21734;DHT22;11029;47.820;10.534;2023-07-31T00:48:18;13.80;71.40
21734;DHT22;11029;47.820;10.534;2023-07-31T00:50:45;13.60;72.60
21734;DHT22;11029;47.820;10.534;2023-07-31T00:53:13;13.70;72.30
21734;DHT22;11029;47.820;10.534;2023-07-31T00:55:40;13.60;73.30
21734;DHT22;11029;47.820;10.534;2023-07-31T00:58:07;13.70;72.30
21734;DHT22;11029;47.820;10.534;2023-07-31T01:00:34;13.80;71.90
21734;DHT22;11029;47.820;10.534;2023-07-31T01:03:00;13.80;71.80
21734;DHT22;11029;47.820;10.534;2023-07-31T01:06:14;13.70;71.40
21734;DHT22;11029;47.820;10.534;2023-07-31T01:11:19;13.70;71.90
21734;DHT22;11029;47.820;10.534;2023-07-31T01:13:48;13.60;72.30
21734;DHT22;11029;47.820;10.534;2023-07-31T01:16:15;13.60;72.70
21734;DHT22;11029;47.820;10.534;2023-07-31T01:18:42;13.70;72.40
21734;DHT22;11029;47.820;10.534;2023-07-31T01:26:34;13.80;71.20
21734;DHT22;11029;47.820;10.534;2023-07-31T01:29:27;13.60;71.10
21734;DHT22;11029;47.820;10.534;2023-07-31T01:32:02;13.60;71.40
21734;DHT22;11029;47.820;10.534;2023-07-31T01:34:30;13.40;72.30
21734;DHT22;11029;47.820;10.534;2023-07-31T01:36:57;13.40;72.40
21734;DHT22;11029;47.820;10.534;2023-07-31T01:39:25;13.40;73.00
21734;DHT22;11029;47.820;10.534;2023-07-31T01:41:51;13.50;72.40
21734;DHT22;11029;47.820;10.534;2023-07-31T01:44:20;13.60;72.00
21734;DHT22;11029;47.820;10.534;2023-07-31T01:46:46;13.60;72.20
21734;DHT22;11029;47.820;10.534;2023-07-31T01:49:13;13.70;72.00
21734;DHT22;11029;47.820;10.534;2023-07-31T01:51:40;13.70;72.50
21734;DHT22;11029;47.820;10.534;2023-07-31T01:54:07;13.80;71.90
21734;DHT22;11029;47.820;10.534;2023-07-31T01:56:34;13.70;71.80
21734;DHT22;11029;47.820;10.534;2023-07-31T01:59:01;13.60;72.10
21734;DHT22;11029;47.820;10.534;2023-07-31T02:01:27;13.50;72.00
21734;DHT22;11029;47.820;10.534;2023-07-31T02:03:54;13.50;72.20
21734;DHT22;11029;47.820;10.534;2023-07-31T02:06:22;13.30;73.00
21734;DHT22;11029;47.820;10.534;2023-07-31T02:08:49;13.30;73.80
21734;DHT22;11029;47.820;10.534;2023-07-31T02:11:16;13.40;73.50
21734;DHT22;11029;47.820;10.534;2023-07-31T02:13:42;13.50;72.80
21734;DHT22;11029;47.820;10.534;2023-07-31T02:16:09;13.50;72.30
21734;DHT22;11029;47.820;10.534;2023-07-31T02:18:36;13.50;72.00
21734;DHT22;11029;47.820;10.534;2023-07-31T02:21:03;13.40;71.70
21734;DHT22;11029;47.820;10.534;2023-07-31T02:23:30;13.40;71.90
21734;DHT22;11029;47.820;10.534;2023-07-31T02:25:56;13.30;72.10
21734;DHT22;11029;47.820;10.534;2023-07-31T02:28:23;13.20;72.30
21734;DHT22;11029;47.820;10.534;2023-07-31T02:30:51;13.10;72.70
21734;DHT22;11029;47.820;10.534;2023-07-31T02:33:18;13.00;73.20
21734;DHT22;11029;47.820;10.534;2023-07-31T02:35:46;13.00;73.50
21734;DHT22;11029;47.820;10.534;2023-07-31T02:38:13;13.00;73.40
21734;DHT22;11029;47.820;10.534;2023-07-31T02:40:40;13.00;73.20
21734;DHT22;11029;47.820;10.534;2023-07-31T02:43:08;13.10;72.60
21734;DHT22;11029;47.820;10.534;2023-07-31T02:45:36;13.00;71.90
21734;DHT22;11029;47.820;10.534;2023-07-31T02:48:03;12.80;73.00
21734;DHT22;11029;47.820;10.534;2023-07-31T02:50:30;12.60;74.20
21734;DHT22;11029;47.820;10.534;2023-07-31T02:52:57;12.60;74.70
21734;DHT22;11029;47.820;10.534;2023-07-31T02:55:23;12.70;74.00
21734;DHT22;11029;47.820;10.534;2023-07-31T02:57:50;12.70;73.40
21734;DHT22;11029;47.820;10.534;2023-07-31T03:00:20;12.60;72.70
21734;DHT22;11029;47.820;10.534;2023-07-31T03:02:46;12.50;73.00
21734;DHT22;11029;47.820;10.534;2023-07-31T03:05:13;12.50;73.20
21734;DHT22;11029;47.820;10.534;2023-07-31T03:07:41;12.40;73.80
21734;DHT22;11029;47.820;10.534;2023-07-31T03:10:08;12.40;74.10
21734;DHT22;11029;47.820;10.534;2023-07-31T03:12:35;12.50;73.80
21734;DHT22;11029;47.820;10.534;2023-07-31T03:15:02;12.60;74.00
21734;DHT22;11029;47.820;10.534;2023-07-31T03:17:29;12.70;73.20
21734;DHT22;11029;47.820;10.534;2023-07-31T03:19:55;12.60;72.90
21734;DHT22;11029;47.820;10.534;2023-07-31T03:22:22;12.60;72.50
21734;DHT22;11029;47.820;10.534;2023-07-31T03:24:50;12.60;72.50
21734;DHT22;11029;47.820;10.534;2023-07-31T03:27:16;12.50;72.90
21734;DHT22;11029;47.820;10.534;2023-07-31T03:29:43;12.50;73.20
21734;DHT22;11029;47.820;10.534;2023-07-31T03:32:10;12.40;73.50
21734;DHT22;11029;47.820;10.534;2023-07-31T03:34:37;12.30;73.50
21734;DHT22;11029;47.820;10.534;2023-07-31T03:37:05;12.10;74.70
21734;DHT22;11029;47.820;10.534;2023-07-31T03:39:32;12.20;74.50
21734;DHT22;11029;47.820;10.534;2023-07-31T03:41:59;12.30;73.60
21734;DHT22;11029;47.820;10.534;2023-07-31T03:44:28;12.20;73.10
21734;DHT22;11029;47.820;10.534;2023-07-31T03:46:55;12.20;72.20
21734;DHT22;11029;47.820;10.534;2023-07-31T03:49:22;12.10;73.20
21734;DHT22;11029;47.820;10.534;2023-07-31T03:51:49;12.00;73.50
21734;DHT22;11029;47.820;10.534;2023-07-31T03:54:15;12.00;73.30
21734;DHT22;11029;47.820;10.534;2023-07-31T03:56:42;11.80;74.20
21734;DHT22;11029;47.820;10.534;2023-07-31T03:59:10;11.80;75.10
21734;DHT22;11029;47.820;10.534;2023-07-31T04:01:36;11.80;75.10
21734;DHT22;11029;47.820;10.534;2023-07-31T04:04:03;12.00;74.80
21734;DHT22;11029;47.820;10.534;2023-07-31T04:06:30;12.20;74.10
21734;DHT22;11029;47.820;10.534;2023-07-31T04:08:57;12.20;73.50
21734;DHT22;11029;47.820;10.534;2023-07-31T04:11:24;12.20;73.70
21734;DHT22;11029;47.820;10.534;2023-07-31T04:13:50;12.20;73.50
21734;DHT22;11029;47.820;10.534;2023-07-31T04:16:17;12.20;73.40
21734;DHT22;11029;47.820;10.534;2023-07-31T04:18:44;12.30;72.70
21734;DHT22;11029;47.820;10.534;2023-07-31T04:21:11;12.30;72.70
21734;DHT22;11029;47.820;10.534;2023-07-31T04:23:38;12.40;72.60
21734;DHT22;11029;47.820;10.534;2023-07-31T04:26:05;12.40;72.80
21734;DHT22;11029;47.820;10.534;2023-07-31T04:28:31;12.50;72.50
21734;DHT22;11029;47.820;10.534;2023-07-31T04:30:58;12.50;72.20
21734;DHT22;11029;47.820;10.534;2023-07-31T04:33:25;12.40;72.20
21734;DHT22;11029;47.820;10.534;2023-07-31T04:35:53;12.40;72.70
21734;DHT22;11029;47.820;10.534;2023-07-31T04:38:20;12.30;73.70
21734;DHT22;11029;47.820;10.534;2023-07-31T04:40:48;12.50;73.30
21734;DHT22;11029;47.820;10.534;2023-07-31T04:43:15;12.50;73.30
21734;DHT22;11029;47.820;10.534;2023-07-31T04:45:46;12.70;73.40
21734;DHT22;11029;47.820;10.534;2023-07-31T04:48:14;12.80;73.20
21734;DHT22;11029;47.820;10.534;2023-07-31T04:50:41;12.90;73.30
21734;DHT22;11029;47.820;10.534;2023-07-31T04:53:08;12.90;73.60
21734;DHT22;11029;47.820;10.534;2023-07-31T04:55:35;12.80;74.60
21734;DHT22;11029;47.820;10.534;2023-07-31T04:58:02;12.90;74.30
21734;DHT22;11029;47.820;10.534;2023-07-31T05:00:29;12.90;74.60
21734;DHT22;11029;47.820;10.534;2023-07-31T05:02:56;13.00;73.60
21734;DHT22;11029;47.820;10.534;2023-07-31T05:05:23;13.00;73.50
21734;DHT22;11029;47.820;10.534;2023-07-31T05:07:50;13.20;73.70
21734;DHT22;11029;47.820;10.534;2023-07-31T05:10:16;13.40;73.10
21734;DHT22;11029;47.820;10.534;2023-07-31T05:12:43;13.60;72.40
21734;DHT22;11029;47.820;10.534;2023-07-31T05:15:10;13.70;72.40
21734;DHT22;11029;47.820;10.534;2023-07-31T05:17:37;13.80;71.80
21734;DHT22;11029;47.820;10.534;2023-07-31T05:20:04;13.90;71.90
21734;DHT22;11029;47.820;10.534;2023-07-31T05:22:31;14.10;71.50
21734;DHT22;11029;47.820;10.534;2023-07-31T05:24:58;14.30;71.30
21734;DHT22;11029;47.820;10.534;2023-07-31T05:27:25;14.40;70.80
21734;DHT22;11029;47.820;10.534;2023-07-31T05:29:52;14.60;70.10
21734;DHT22;11029;47.820;10.534;2023-07-31T05:32:18;14.40;70.70
21734;DHT22;11029;47.820;10.534;2023-07-31T05:34:45;14.60;70.40
21734;DHT22;11029;47.820;10.534;2023-07-31T05:37:12;14.60;70.30
21734;DHT22;11029;47.820;10.534;2023-07-31T05:39:39;14.50;71.00
21734;DHT22;11029;47.820;10.534;2023-07-31T05:42:06;14.50;71.80
21734;DHT22;11029;47.820;10.534;2023-07-31T05:44:32;14.60;71.50
21734;DHT22;11029;47.820;10.534;2023-07-31T05:46:59;14.70;71.90
21734;DHT22;11029;47.820;10.534;2023-07-31T05:49:26;14.90;71.70
21734;DHT22;11029;47.820;10.534;2023-07-31T05:51:53;14.90;72.30
21734;DHT22;11029;47.820;10.534;2023-07-31T05:54:20;14.90;72.70
21734;DHT22;11029;47.820;10.534;2023-07-31T05:56:46;14.90;73.30
21734;DHT22;11029;47.820;10.534;2023-07-31T05:59:43;14.90;73.50
21734;DHT22;11029;47.820;10.534;2023-07-31T06:02:35;14.80;73.40
21734;DHT22;11029;47.820;10.534;2023-07-31T06:05:05;14.90;73.00
21734;DHT22;11029;47.820;10.534;2023-07-31T06:07:33;15.00;72.40
21734;DHT22;11029;47.820;10.534;2023-07-31T06:09:59;14.80;73.10
21734;DHT22;11029;47.820;10.534;2023-07-31T06:12:32;14.80;72.90
21734;DHT22;11029;47.820;10.534;2023-07-31T06:14:59;14.90;73.70
21734;DHT22;11029;47.820;10.534;2023-07-31T06:17:26;15.00;73.20
21734;DHT22;11029;47.820;10.534;2023-07-31T06:19:53;15.20;72.20
21734;DHT22;11029;47.820;10.534;2023-07-31T06:22:20;15.30;71.10
21734;DHT22;11029;47.820;10.534;2023-07-31T06:24:47;15.30;71.30
21734;DHT22;11029;47.820;10.534;2023-07-31T06:27:14;15.20;71.90
21734;DHT22;11029;47.820;10.534;2023-07-31T06:29:41;15.20;71.70
21734;DHT22;11029;47.820;10.534;2023-07-31T06:32:08;15.30;72.10
21734;DHT22;11029;47.820;10.534;2023-07-31T06:34:35;15.30;71.00
21734;DHT22;11029;47.820;10.534;2023-07-31T06:37:02;15.40;71.30
21734;DHT22;11029;47.820;10.534;2023-07-31T06:39:29;15.60;71.00
21734;DHT22;11029;47.820;10.534;2023-07-31T06:41:55;15.90;69.90
21734;DHT22;11029;47.820;10.534;2023-07-31T06:44:22;16.10;70.20
21734;DHT22;11029;47.820;10.534;2023-07-31T06:46:49;16.00;68.20
21734;DHT22;11029;47.820;10.534;2023-07-31T06:49:16;16.00;68.10
21734;DHT22;11029;47.820;10.534;2023-07-31T06:51:43;15.90;68.40
21734;DHT22;11029;47.820;10.534;2023-07-31T06:54:10;15.70;68.70
21734;DHT22;11029;47.820;10.534;2023-07-31T06:56:37;15.60;69.40
21734;DHT22;11029;47.820;10.534;2023-07-31T06:59:07;15.70;69.20
21734;DHT22;11029;47.820;10.534;2023-07-31T07:01:34;15.80;68.70
21734;DHT22;11029;47.820;10.534;2023-07-31T07:04:01;15.90;68.40
21734;DHT22;11029;47.820;10.534;2023-07-31T07:06:28;16.10;67.80
21734;DHT22;11029;47.820;10.534;2023-07-31T07:08:55;16.20;67.10
21734;DHT22;11029;47.820;10.534;2023-07-31T07:11:21;16.20;66.80
21734;DHT22;11029;47.820;10.534;2023-07-31T07:13:48;16.20;66.40
21734;DHT22;11029;47.820;10.534;2023-07-31T07:16:15;16.30;66.00
21734;DHT22;11029;47.820;10.534;2023-07-31T07:18:43;16.30;66.80
21734;DHT22;11029;47.820;10.534;2023-07-31T07:21:28;16.40;65.30
21734;DHT22;11029;47.820;10.534;2023-07-31T07:23:55;16.60;65.50
21734;DHT22;11029;47.820;10.534;2023-07-31T07:26:22;16.80;65.30
21734;DHT22;11029;47.820;10.534;2023-07-31T07:28:49;17.10;64.30
21734;DHT22;11029;47.820;10.534;2023-07-31T07:31:16;17.00;64.10
21734;DHT22;11029;47.820;10.534;2023-07-31T07:33:42;16.90;63.70
21734;DHT22;11029;47.820;10.534;2023-07-31T07:36:09;16.90;64.50
21734;DHT22;11029;47.820;10.534;2023-07-31T07:38:36;17.10;64.50
21734;DHT22;11029;47.820;10.534;2023-07-31T07:41:05;17.20;63.50
21734;DHT22;11029;47.820;10.534;2023-07-31T07:43:31;17.00;63.80
21734;DHT22;11029;47.820;10.534;2023-07-31T07:45:58;16.90;64.50
21734;DHT22;11029;47.820;10.534;2023-07-31T07:48:25;17.00;63.40
21734;DHT22;11029;47.820;10.534;2023-07-31T07:50:52;17.20;62.70
21734;DHT22;11029;47.820;10.534;2023-07-31T07:53:19;17.10;63.30
21734;DHT22;11029;47.820;10.534;2023-07-31T07:55:45;16.90;64.10
21734;DHT22;11029;47.820;10.534;2023-07-31T07:58:12;16.90;64.90
21734;DHT22;11029;47.820;10.534;2023-07-31T08:00:39;16.70;65.40
21734;DHT22;11029;47.820;10.534;2023-07-31T08:03:06;16.70;64.00
21734;DHT22;11029;47.820;10.534;2023-07-31T08:05:33;16.80;64.70
21734;DHT22;11029;47.820;10.534;2023-07-31T08:08:01;16.70;64.30
21734;DHT22;11029;47.820;10.534;2023-07-31T08:10:28;16.70;63.10
21734;DHT22;11029;47.820;10.534;2023-07-31T08:12:54;16.60;64.30
21734;DHT22;11029;47.820;10.534;2023-07-31T08:15:21;16.50;64.70
21734;DHT22;11029;47.820;10.534;2023-07-31T08:17:48;16.50;65.00
21734;DHT22;11029;47.820;10.534;2023-07-31T08:20:15;16.60;64.70
21734;DHT22;11029;47.820;10.534;2023-07-31T08:22:42;16.50;65.20
21734;DHT22;11029;47.820;10.534;2023-07-31T08:25:08;16.70;65.30
21734;DHT22;11029;47.820;10.534;2023-07-31T08:27:35;17.00;64.40
21734;DHT22;11029;47.820;10.534;2023-07-31T08:30:02;17.00;63.40
21734;DHT22;11029;47.820;10.534;2023-07-31T08:32:29;17.10;63.10
21734;DHT22;11029;47.820;10.534;2023-07-31T08:34:56;17.00;63.20
21734;DHT22;11029;47.820;10.534;2023-07-31T08:37:23;17.00;63.70
21734;DHT22;11029;47.820;10.534;2023-07-31T08:39:49;16.90;63.10
21734;DHT22;11029;47.820;10.534;2023-07-31T08:42:16;16.90;63.00
21734;DHT22;11029;47.820;10.534;2023-07-31T08:44:43;17.10;63.40
21734;DHT22;11029;47.820;10.534;2023-07-31T08:47:11;17.20;62.60
21734;DHT22;11029;47.820;10.534;2023-07-31T08:49:38;17.50;62.10
21734;DHT22;11029;47.820;10.534;2023-07-31T08:52:07;17.70;61.60
21734;DHT22;11029;47.820;10.534;2023-07-31T08:54:33;17.40;59.70
21734;DHT22;11029;47.820;10.534;2023-07-31T08:57:00;17.30;60.50
21734;DHT22;11029;47.820;10.534;2023-07-31T08:59:30;17.10;61.40
21734;DHT22;11029;47.820;10.534;2023-07-31T09:02:05;17.00;61.80
21734;DHT22;11029;47.820;10.534;2023-07-31T09:04:33;17.10;61.50
21734;DHT22;11029;47.820;10.534;2023-07-31T09:07:02;17.10;61.90
21734;DHT22;11029;47.820;10.534;2023-07-31T09:09:31;17.10;62.00
21734;DHT22;11029;47.820;10.534;2023-07-31T09:11:58;17.00;61.60
21734;DHT22;11029;47.820;10.534;2023-07-31T09:14:26;17.10;63.80
21734;DHT22;11029;47.820;10.534;2023-07-31T09:16:58;17.20;62.70
21734;DHT22;11029;47.820;10.534;2023-07-31T09:19:34;17.30;61.90
21734;DHT22;11029;47.820;10.534;2023-07-31T09:22:07;17.30;61.40
21734;DHT22;11029;47.820;10.534;2023-07-31T09:24:34;17.30;62.30
21734;DHT22;11029;47.820;10.534;2023-07-31T09:27:02;17.30;62.90
21734;DHT22;11029;47.820;10.534;2023-07-31T09:29:29;17.30;61.60
21734;DHT22;11029;47.820;10.534;2023-07-31T09:31:56;17.40;61.50
21734;DHT22;11029;47.820;10.534;2023-07-31T09:34:36;17.40;60.90
21734;DHT22;11029;47.820;10.534;2023-07-31T09:37:04;17.50;60.00
21734;DHT22;11029;47.820;10.534;2023-07-31T09:39:31;17.60;60.00
21734;DHT22;11029;47.820;10.534;2023-07-31T09:41:59;17.80;60.30
21734;DHT22;11029;47.820;10.534;2023-07-31T09:44:39;18.00;59.40
21734;DHT22;11029;47.820;10.534;2023-07-31T09:47:23;17.90;59.10
21734;DHT22;11029;47.820;10.534;2023-07-31T09:49:51;17.90;60.50
21734;DHT22;11029;47.820;10.534;2023-07-31T09:54:46;17.90;60.40
21734;DHT22;11029;47.820;10.534;2023-07-31T09:57:13;18.00;59.40
21734;DHT22;11029;47.820;10.534;2023-07-31T09:59:45;18.20;59.20
21734;DHT22;11029;47.820;10.534;2023-07-31T10:02:15;18.20;59.50
21734;DHT22;11029;47.820;10.534;2023-07-31T10:04:45;18.20;59.00
21734;DHT22;11029;47.820;10.534;2023-07-31T10:07:14;18.50;59.20
21734;DHT22;11029;47.820;10.534;2023-07-31T10:09:43;18.60;60.20
21734;DHT22;11029;47.820;10.534;2023-07-31T10:12:12;18.70;59.30
21734;DHT22;11029;47.820;10.534;2023-07-31T10:14:41;18.60;59.50
21734;DHT22;11029;47.820;10.534;2023-07-31T10:17:09;18.60;60.30
21734;DHT22;11029;47.820;10.534;2023-07-31T10:19:36;18.80;58.20
21734;DHT22;11029;47.820;10.534;2023-07-31T10:22:03;18.70;59.30
21734;DHT22;11029;47.820;10.534;2023-07-31T10:24:31;18.70;59.50
21734;DHT22;11029;47.820;10.534;2023-07-31T10:27:00;18.80;59.40
21734;DHT22;11029;47.820;10.534;2023-07-31T10:29:28;19.00;58.30
21734;DHT22;11029;47.820;10.534;2023-07-31T10:31:57;19.30;56.90
21734;DHT22;11029;47.820;10.534;2023-07-31T10:34:25;19.30;57.10
21734;DHT22;11029;47.820;10.534;2023-07-31T10:37:22;19.40;57.00
21734;DHT22;11029;47.820;10.534;2023-07-31T10:42:58;19.40;56.40
21734;DHT22;11029;47.820;10.534;2023-07-31T10:48:04;19.40;56.70
21734;DHT22;11029;47.820;10.534;2023-07-31T10:50:36;19.50;57.10
21734;DHT22;11029;47.820;10.534;2023-07-31T10:53:03;19.50;55.70
21734;DHT22;11029;47.820;10.534;2023-07-31T10:55:41;19.30;58.50
21734;DHT22;11029;47.820;10.534;2023-07-31T10:58:09;19.30;58.30
21734;DHT22;11029;47.820;10.534;2023-07-31T11:00:41;19.20;57.60
21734;DHT22;11029;47.820;10.534;2023-07-31T11:03:18;19.30;55.60
21734;DHT22;11029;47.820;10.534;2023-07-31T11:08:22;19.30;55.40
21734;DHT22;11029;47.820;10.534;2023-07-31T11:11:13;19.10;54.50
21734;DHT22;11029;47.820;10.534;2023-07-31T11:13:48;19.00;55.40
21734;DHT22;11029;47.820;10.534;2023-07-31T11:16:17;19.30;55.90
21734;DHT22;11029;47.820;10.534;2023-07-31T11:18:45;19.60;54.90
21734;DHT22;11029;47.820;10.534;2023-07-31T11:21:24;19.70;54.60
21734;DHT22;11029;47.820;10.534;2023-07-31T11:23:53;19.70;54.20
21734;DHT22;11029;47.820;10.534;2023-07-31T11:26:25;19.90;54.20
21734;DHT22;11029;47.820;10.534;2023-07-31T11:28:51;20.20;54.30
21734;DHT22;11029;47.820;10.534;2023-07-31T11:31:18;20.10;50.80
21734;DHT22;11029;47.820;10.534;2023-07-31T11:33:46;20.10;50.60
21734;DHT22;11029;47.820;10.534;2023-07-31T11:38:43;20.30;49.50
21734;DHT22;11029;47.820;10.534;2023-07-31T11:41:10;20.10;49.00
21734;DHT22;11029;47.820;10.534;2023-07-31T11:43:40;20.10;49.40
21734;DHT22;11029;47.820;10.534;2023-07-31T11:46:06;20.20;49.10
21734;DHT22;11029;47.820;10.534;2023-07-31T11:48:35;20.40;48.80
21734;DHT22;11029;47.820;10.534;2023-07-31T11:51:04;20.40;50.40
21734;DHT22;11029;47.820;10.534;2023-07-31T11:53:45;20.50;50.70
21734;DHT22;11029;47.820;10.534;2023-07-31T11:56:15;20.60;49.70
21734;DHT22;11029;47.820;10.534;2023-07-31T11:58:44;20.40;50.60
21734;DHT22;11029;47.820;10.534;2023-07-31T12:01:11;20.40;51.80
21734;DHT22;11029;47.820;10.534;2023-07-31T12:03:44;20.50;50.70
21734;DHT22;11029;47.820;10.534;2023-07-31T12:06:11;20.90;49.70
21734;DHT22;11029;47.820;10.534;2023-07-31T12:08:38;21.20;49.10
21734;DHT22;11029;47.820;10.534;2023-07-31T12:11:07;21.50;47.80
21734;DHT22;11029;47.820;10.534;2023-07-31T12:13:36;21.70;49.00
21734;DHT22;11029;47.820;10.534;2023-07-31T12:16:03;22.00;48.40
21734;DHT22;11029;47.820;10.534;2023-07-31T12:18:34;21.90;47.30
21734;DHT22;11029;47.820;10.534;2023-07-31T12:21:04;21.60;50.10
21734;DHT22;11029;47.820;10.534;2023-07-31T12:23:33;21.20;49.30
21734;DHT22;11029;47.820;10.534;2023-07-31T12:26:08;21.00;50.00
21734;DHT22;11029;47.820;10.534;2023-07-31T12:31:17;21.20;49.70
21734;DHT22;11029;47.820;10.534;2023-07-31T12:33:45;21.40;50.60
21734;DHT22;11029;47.820;10.534;2023-07-31T12:36:15;21.60;50.10
21734;DHT22;11029;47.820;10.534;2023-07-31T12:38:42;21.30;47.40
21734;DHT22;11029;47.820;10.534;2023-07-31T12:41:09;21.10;47.00
21734;DHT22;11029;47.820;10.534;2023-07-31T12:43:37;20.90;46.50
21734;DHT22;11029;47.820;10.534;2023-07-31T12:46:04;21.10;46.90
21734;DHT22;11029;47.820;10.534;2023-07-31T12:48:32;21.40;48.80
21734;DHT22;11029;47.820;10.534;2023-07-31T12:50:59;21.60;46.90
21734;DHT22;11029;47.820;10.534;2023-07-31T12:53:25;21.80;46.40
21734;DHT22;11029;47.820;10.534;2023-07-31T12:55:52;21.40;46.40
21734;DHT22;11029;47.820;10.534;2023-07-31T12:58:19;21.50;45.60
21734;DHT22;11029;47.820;10.534;2023-07-31T13:00:46;21.60;48.60
21734;DHT22;11029;47.820;10.534;2023-07-31T13:03:13;21.90;47.60
21734;DHT22;11029;47.820;10.534;2023-07-31T13:05:40;21.80;46.00
21734;DHT22;11029;47.820;10.534;2023-07-31T13:08:07;21.80;46.50
21734;DHT22;11029;47.820;10.534;2023-07-31T13:10:34;21.80;46.90
21734;DHT22;11029;47.820;10.534;2023-07-31T13:13:00;21.70;46.50
21734;DHT22;11029;47.820;10.534;2023-07-31T13:15:27;21.80;42.60
21734;DHT22;11029;47.820;10.534;2023-07-31T13:17:54;22.00;41.90
21734;DHT22;11029;47.820;10.534;2023-07-31T13:20:21;21.70;45.00
21734;DHT22;11029;47.820;10.534;2023-07-31T13:22:48;21.40;46.30
21734;DHT22;11029;47.820;10.534;2023-07-31T13:25:14;21.50;47.30
21734;DHT22;11029;47.820;10.534;2023-07-31T13:27:41;21.50;46.70
21734;DHT22;11029;47.820;10.534;2023-07-31T13:30:08;21.50;48.20
21734;DHT22;11029;47.820;10.534;2023-07-31T13:32:35;21.50;49.00
21734;DHT22;11029;47.820;10.534;2023-07-31T13:35:06;21.60;47.90
21734;DHT22;11029;47.820;10.534;2023-07-31T13:37:33;21.70;49.40
21734;DHT22;11029;47.820;10.534;2023-07-31T13:40:00;21.70;49.80
21734;DHT22;11029;47.820;10.534;2023-07-31T13:42:27;22.00;50.50
21734;DHT22;11029;47.820;10.534;2023-07-31T13:44:55;22.40;45.90
21734;DHT22;11029;47.820;10.534;2023-07-31T13:47:22;22.30;47.20
21734;DHT22;11029;47.820;10.534;2023-07-31T13:49:49;22.50;47.00
21734;DHT22;11029;47.820;10.534;2023-07-31T13:52:16;22.00;46.10
21734;DHT22;11029;47.820;10.534;2023-07-31T13:54:43;22.10;47.30
21734;DHT22;11029;47.820;10.534;2023-07-31T13:57:09;22.30;46.50
21734;DHT22;11029;47.820;10.534;2023-07-31T13:59:36;22.60;47.90
21734;DHT22;11029;47.820;10.534;2023-07-31T14:02:03;22.70;47.60
21734;DHT22;11029;47.820;10.534;2023-07-31T14:04:30;22.50;46.50
21734;DHT22;11029;47.820;10.534;2023-07-31T14:06:58;22.50;44.70
21734;DHT22;11029;47.820;10.534;2023-07-31T14:09:25;22.80;44.60
21734;DHT22;11029;47.820;10.534;2023-07-31T14:11:53;23.10;43.80
21734;DHT22;11029;47.820;10.534;2023-07-31T14:14:19;23.00;42.80
21734;DHT22;11029;47.820;10.534;2023-07-31T14:16:46;22.90;43.10
21734;DHT22;11029;47.820;10.534;2023-07-31T14:19:13;23.10;42.20
21734;DHT22;11029;47.820;10.534;2023-07-31T14:21:40;23.40;42.10
21734;DHT22;11029;47.820;10.534;2023-07-31T14:24:07;23.30;41.00
21734;DHT22;11029;47.820;10.534;2023-07-31T14:26:34;23.20;42.10
21734;DHT22;11029;47.820;10.534;2023-07-31T14:29:01;23.10;40.30
21734;DHT22;11029;47.820;10.534;2023-07-31T14:31:28;23.00;43.80
21734;DHT22;11029;47.820;10.534;2023-07-31T14:33:56;22.60;43.80
21734;DHT22;11029;47.820;10.534;2023-07-31T14:36:24;22.40;44.70
21734;DHT22;11029;47.820;10.534;2023-07-31T14:38:50;22.30;43.40
21734;DHT22;11029;47.820;10.534;2023-07-31T14:41:17;22.00;44.90
21734;DHT22;11029;47.820;10.534;2023-07-31T14:43:44;21.80;45.90
21734;DHT22;11029;47.820;10.534;2023-07-31T14:46:11;21.60;45.10
21734;DHT22;11029;47.820;10.534;2023-07-31T14:48:38;21.50;47.10
21734;DHT22;11029;47.820;10.534;2023-07-31T14:51:04;21.30;46.70
21734;DHT22;11029;47.820;10.534;2023-07-31T14:53:31;21.00;46.30
21734;DHT22;11029;47.820;10.534;2023-07-31T14:55:58;21.10;47.20
21734;DHT22;11029;47.820;10.534;2023-07-31T14:58:25;20.90;47.90
21734;DHT22;11029;47.820;10.534;2023-07-31T15:00:51;20.80;47.80
21734;DHT22;11029;47.820;10.534;2023-07-31T15:03:18;20.60;47.80
21734;DHT22;11029;47.820;10.534;2023-07-31T15:05:45;20.60;48.10
21734;DHT22;11029;47.820;10.534;2023-07-31T15:08:12;20.70;48.30
21734;DHT22;11029;47.820;10.534;2023-07-31T15:10:39;20.60;47.70
21734;DHT22;11029;47.820;10.534;2023-07-31T15:13:05;20.70;48.00
21734;DHT22;11029;47.820;10.534;2023-07-31T15:15:32;20.70;47.70
21734;DHT22;11029;47.820;10.534;2023-07-31T15:17:59;20.60;47.90
21734;DHT22;11029;47.820;10.534;2023-07-31T15:20:26;20.60;48.10
21734;DHT22;11029;47.820;10.534;2023-07-31T15:22:52;20.70;47.30
21734;DHT22;11029;47.820;10.534;2023-07-31T15:25:19;20.80;47.10
21734;DHT22;11029;47.820;10.534;2023-07-31T15:27:46;20.80;47.10
21734;DHT22;11029;47.820;10.534;2023-07-31T15:30:13;21.00;47.20
21734;DHT22;11029;47.820;10.534;2023-07-31T15:32:39;21.20;48.10
21734;DHT22;11029;47.820;10.534;2023-07-31T15:35:07;21.70;47.40
21734;DHT22;11029;47.820;10.534;2023-07-31T15:37:34;21.90;46.30
21734;DHT22;11029;47.820;10.534;2023-07-31T15:40:00;22.20;46.70
21734;DHT22;11029;47.820;10.534;2023-07-31T15:42:27;22.40;45.90
21734;DHT22;11029;47.820;10.534;2023-07-31T15:44:54;22.40;44.30